createdAt,value
2019-05-05T00:02:24.851Z,99.90
2019-05-05T00:05:01.625Z,99.90
2019-05-05T00:07:34.834Z,99.90
2019-05-05T00:10:06.506Z,99.90
2019-05-05T00:12:59.275Z,99.90
2019-05-05T00:15:55.218Z,99.90
2019-05-05T00:18:28.735Z,99.90
2019-05-05T00:20:59.068Z,99.90
2019-05-05T00:23:29.367Z,99.90
2019-05-05T00:25:59.709Z,99.90
2019-05-05T00:28:30.006Z,99.90
2019-05-05T00:31:01.191Z,99.90
2019-05-05T00:33:31.680Z,99.90
2019-05-05T00:36:04.785Z,99.90
2019-05-05T00:38:35.239Z,99.90
2019-05-05T00:41:05.762Z,99.90
2019-05-05T00:43:36.086Z,99.90
2019-05-05T00:46:12.776Z,99.90
2019-05-05T00:48:45.603Z,99.90
2019-05-05T00:51:16.022Z,99.90
2019-05-05T00:53:46.401Z,99.90
2019-05-05T00:56:16.696Z,99.90
2019-05-05T00:58:52.827Z,99.90
2019-05-05T01:01:42.123Z,99.90
2019-05-05T01:04:15.580Z,99.90
2019-05-05T01:06:46.964Z,99.90
2019-05-05T01:09:19.374Z,99.90
2019-05-05T01:11:49.681Z,99.90
2019-05-05T01:14:20.145Z,99.90
2019-05-05T01:16:50.443Z,99.90
2019-05-05T01:19:20.773Z,99.90
2019-05-05T01:21:51.362Z,99.90
2019-05-05T01:24:21.672Z,99.90
2019-05-05T01:26:52.012Z,99.90
2019-05-05T01:29:25.126Z,99.90
2019-05-05T01:31:56.848Z,99.90
2019-05-05T01:34:31.614Z,99.90
2019-05-05T01:37:11.454Z,99.90
2019-05-05T01:39:49.804Z,99.90
2019-05-05T01:42:20.195Z,99.90
2019-05-05T01:44:50.492Z,99.90
2019-05-05T01:47:20.790Z,99.90
2019-05-05T01:49:51.154Z,99.90
2019-05-05T01:52:21.434Z,99.90
2019-05-05T01:54:51.778Z,99.90
2019-05-05T01:57:22.262Z,99.90
2019-05-05T01:59:52.657Z,99.90
2019-05-05T02:02:24.937Z,99.90
2019-05-05T02:04:55.430Z,99.90
2019-05-05T02:07:26.077Z,99.90
2019-05-05T02:09:56.472Z,99.90
2019-05-05T02:12:27.058Z,99.90
2019-05-05T02:14:57.428Z,99.90
2019-05-05T02:17:27.754Z,99.90
2019-05-05T02:19:58.087Z,99.90
2019-05-05T02:22:28.360Z,99.90
2019-05-05T02:24:58.683Z,99.90
2019-05-05T02:27:29.211Z,99.90
2019-05-05T02:30:15.961Z,99.90
2019-05-05T02:32:48.240Z,99.90
2019-05-05T02:35:18.594Z,99.90
2019-05-05T02:37:48.894Z,99.90
2019-05-05T02:40:19.337Z,99.90
2019-05-05T02:42:50.374Z,99.90
2019-05-05T02:45:48.282Z,99.90
2019-05-05T02:48:21.431Z,99.90
2019-05-05T02:51:01.177Z,99.90
2019-05-05T02:53:34.123Z,99.90
2019-05-05T02:56:08.295Z,99.90
2019-05-05T02:58:40.162Z,99.90
2019-05-05T03:01:30.176Z,99.90
2019-05-05T03:04:03.770Z,99.90
2019-05-05T03:06:34.354Z,99.90
2019-05-05T03:09:06.599Z,99.90
2019-05-05T03:11:39.119Z,99.90
2019-05-05T03:14:14.214Z,99.90
2019-05-05T03:16:44.896Z,99.90
2019-05-05T03:19:15.250Z,99.90
2019-05-05T03:21:46.212Z,99.90
2019-05-05T03:24:16.838Z,99.90
2019-05-05T03:26:47.575Z,99.90
2019-05-05T03:29:21.155Z,99.90
2019-05-05T03:31:55.966Z,99.90
2019-05-05T03:34:24.981Z,99.90
2019-05-05T03:36:55.310Z,99.90
2019-05-05T03:39:27.655Z,99.90
2019-05-05T03:42:17.574Z,99.90
2019-05-05T03:44:54.487Z,99.90
2019-05-05T03:47:25.627Z,99.90
2019-05-05T03:49:57.250Z,99.90
2019-05-05T03:52:27.660Z,99.90
2019-05-05T03:54:58.010Z,99.90
2019-05-05T03:57:28.420Z,99.90
2019-05-05T03:59:59.652Z,99.90
2019-05-05T04:02:47.440Z,99.90
2019-05-05T04:05:39.806Z,99.90
2019-05-05T04:08:10.979Z,99.90
2019-05-05T04:10:41.329Z,99.90
2019-05-05T04:13:13.802Z,99.90
2019-05-05T04:15:46.057Z,99.90
2019-05-05T04:18:23.724Z,99.90
2019-05-05T04:20:53.769Z,99.90
2019-05-05T04:23:24.593Z,99.90
2019-05-05T04:25:55.060Z,99.90
2019-05-05T04:28:25.411Z,99.90
2019-05-05T04:30:55.720Z,99.90
2019-05-05T04:33:26.052Z,99.90
2019-05-05T04:35:56.399Z,99.90
2019-05-05T04:38:26.704Z,99.90
2019-05-05T04:40:57.063Z,99.90
2019-05-05T04:43:27.421Z,99.90
2019-05-05T04:45:57.774Z,99.90
2019-05-05T04:48:35.230Z,99.90
2019-05-05T04:51:14.284Z,99.90
2019-05-05T04:54:03.782Z,99.90
2019-05-05T04:56:34.755Z,99.90
2019-05-05T04:59:05.465Z,99.90
2019-05-05T05:01:36.355Z,99.90
2019-05-05T05:04:16.672Z,99.90
2019-05-05T05:06:54.193Z,99.90
2019-05-05T05:09:25.678Z,99.90
2019-05-05T05:11:56.031Z,99.90
2019-05-05T05:14:26.933Z,99.90
2019-05-05T05:16:59.011Z,99.90
2019-05-05T05:19:29.476Z,99.90
2019-05-05T05:22:02.156Z,99.90
2019-05-05T05:24:34.030Z,99.90
2019-05-05T05:27:05.055Z,99.90
2019-05-05T05:29:35.982Z,99.90
2019-05-05T05:32:06.336Z,99.90
2019-05-05T05:34:36.710Z,99.90
2019-05-05T05:37:07.228Z,99.90
2019-05-05T05:39:52.149Z,99.90
2019-05-05T05:42:24.139Z,99.90
2019-05-05T05:45:05.500Z,99.90
2019-05-05T05:47:54.730Z,99.90
2019-05-05T05:50:29.261Z,99.90
2019-05-05T05:52:59.609Z,99.90
2019-05-05T05:55:29.938Z,99.90
2019-05-05T05:58:00.294Z,99.90
2019-05-05T06:00:30.660Z,99.90
2019-05-05T06:03:00.956Z,99.90
2019-05-05T06:05:31.267Z,99.90
2019-05-05T06:08:01.712Z,99.90
2019-05-05T06:10:33.895Z,99.90
2019-05-05T06:13:04.331Z,99.90
2019-05-05T06:15:35.618Z,99.90
2019-05-05T06:18:05.915Z,99.90
2019-05-05T06:20:36.311Z,99.90
2019-05-05T06:23:06.897Z,99.90
2019-05-05T06:25:44.576Z,99.90
2019-05-05T06:28:14.998Z,99.90
2019-05-05T06:30:45.334Z,99.90
2019-05-05T06:33:15.772Z,99.90
2019-05-05T06:35:46.092Z,99.90
2019-05-05T06:38:16.386Z,99.90
2019-05-05T06:40:53.751Z,99.90
2019-05-05T06:43:44.131Z,99.90
2019-05-05T06:46:17.717Z,99.90
2019-05-05T06:48:47.990Z,99.90
2019-05-05T06:51:18.262Z,99.90
2019-05-05T06:53:48.576Z,99.90
2019-05-05T06:56:18.897Z,99.90
2019-05-05T06:58:49.189Z,99.90
2019-05-05T07:01:19.506Z,99.90
2019-05-05T07:03:49.807Z,99.90
2019-05-05T07:08:56.579Z,99.90
2019-05-05T07:11:27.384Z,99.90
2019-05-05T07:13:58.426Z,99.90
2019-05-05T07:16:28.732Z,99.90
2019-05-05T07:19:01.583Z,99.90
2019-05-05T07:21:34.249Z,99.90
2019-05-05T07:24:04.671Z,99.90
2019-05-05T07:26:35.550Z,99.90
2019-05-05T07:29:06.035Z,99.90
2019-05-05T07:31:36.423Z,99.90
2019-05-05T07:34:07.502Z,99.90
2019-05-05T07:36:49.564Z,99.90
2019-05-05T07:39:20.471Z,99.90
2019-05-05T07:41:54.137Z,99.90
2019-05-05T07:44:29.351Z,99.90
2019-05-05T07:46:57.199Z,99.90
2019-05-05T07:49:28.584Z,99.90
2019-05-05T07:51:58.901Z,99.90
2019-05-05T07:54:29.896Z,99.90
2019-05-05T07:57:00.207Z,99.90
2019-05-05T07:59:31.211Z,99.90
2019-05-05T08:02:04.014Z,99.90
2019-05-05T08:04:34.936Z,99.90
2019-05-05T08:07:11.007Z,99.90
2019-05-05T08:09:41.464Z,99.90
2019-05-05T08:12:13.761Z,99.90
2019-05-05T08:14:44.529Z,99.90
2019-05-05T08:17:44.634Z,99.90
2019-05-05T08:20:19.989Z,99.90
2019-05-05T08:22:50.902Z,99.90
2019-05-05T08:25:37.557Z,99.90
2019-05-05T08:28:36.154Z,99.90
2019-05-05T08:31:33.906Z,99.90
2019-05-05T08:34:04.653Z,99.90
2019-05-05T08:36:34.944Z,99.90
2019-05-05T08:39:09.178Z,99.90
2019-05-05T08:41:39.605Z,99.90
2019-05-05T08:44:09.872Z,99.90
2019-05-05T08:46:40.257Z,99.90
2019-05-05T08:49:10.549Z,99.90
2019-05-05T08:51:40.847Z,99.90
2019-05-05T08:54:11.166Z,99.90
2019-05-05T08:56:41.486Z,99.60
2019-05-05T08:59:14.141Z,98.50
2019-05-05T09:01:44.837Z,99.50
2019-05-05T09:04:15.708Z,96.80
2019-05-05T09:06:46.016Z,97.00
2019-05-05T09:09:16.709Z,98.90
2019-05-05T09:11:47.314Z,99.90
2019-05-05T09:14:17.611Z,99.90
2019-05-05T09:16:47.974Z,99.90
2019-05-05T09:19:20.709Z,99.90
2019-05-05T09:21:50.979Z,99.90
2019-05-05T09:24:35.594Z,99.90
2019-05-05T09:27:28.202Z,99.90
2019-05-05T09:29:57.181Z,99.90
2019-05-05T09:32:27.454Z,99.90
2019-05-05T09:34:57.720Z,99.90
2019-05-05T09:37:28.718Z,99.90
2019-05-05T09:39:59.028Z,99.90
2019-05-05T09:42:29.315Z,99.90
2019-05-05T09:44:59.638Z,99.90
2019-05-05T09:47:29.926Z,99.90
2019-05-05T09:50:00.227Z,98.90
2019-05-05T09:52:30.589Z,99.20
2019-05-05T09:55:00.887Z,99.00
2019-05-05T09:57:31.245Z,97.90
2019-05-05T10:00:11.346Z,99.90
2019-05-05T10:02:43.959Z,97.80
2019-05-05T10:05:14.729Z,99.60
2019-05-05T10:07:45.112Z,98.30
2019-05-05T10:10:15.751Z,95.40
2019-05-05T10:12:46.089Z,97.70
2019-05-05T10:15:16.649Z,96.50
2019-05-05T10:17:46.943Z,95.90
2019-05-05T10:20:17.349Z,97.80
2019-05-05T10:22:47.672Z,98.80
2019-05-05T10:25:35.713Z,97.00
2019-05-05T10:28:06.038Z,97.90
2019-05-05T10:30:36.546Z,97.60
2019-05-05T10:33:06.875Z,91.30
2019-05-05T10:35:37.216Z,92.50
2019-05-05T10:38:07.524Z,95.80
2019-05-05T10:40:37.804Z,94.70
2019-05-05T10:43:08.108Z,92.10
2019-05-05T10:45:38.393Z,91.40
2019-05-05T10:48:08.689Z,90.00
2019-05-05T10:50:39.239Z,85.30
2019-05-05T10:53:09.532Z,89.20
2019-05-05T10:55:39.882Z,90.00
2019-05-05T10:58:10.550Z,92.00
2019-05-05T11:01:03.965Z,85.10
2019-05-05T11:03:34.329Z,85.00
2019-05-05T11:06:04.999Z,83.20
2019-05-05T11:08:35.921Z,87.00
2019-05-05T11:11:06.335Z,92.30
2019-05-05T11:13:36.660Z,90.00
2019-05-05T11:16:06.938Z,90.20
2019-05-05T11:18:37.356Z,93.40
2019-05-05T11:21:07.743Z,99.80
2019-05-05T11:23:38.015Z,99.90
2019-05-05T11:26:08.713Z,99.90
2019-05-05T11:28:39.000Z,99.90
2019-05-05T11:31:09.314Z,99.90
2019-05-05T11:33:56.441Z,99.90
2019-05-05T11:36:51.982Z,99.90
2019-05-05T11:39:25.478Z,99.90
2019-05-05T11:41:56.764Z,99.90
2019-05-05T11:44:28.374Z,99.90
2019-05-05T11:46:59.661Z,99.40
2019-05-05T11:49:33.702Z,99.10
2019-05-05T11:52:06.956Z,94.50
2019-05-05T11:54:38.707Z,87.90
2019-05-05T11:57:13.450Z,82.40
2019-05-05T11:59:45.788Z,73.10
2019-05-05T12:02:20.610Z,77.00
2019-05-05T12:04:54.045Z,81.40
2019-05-05T12:07:25.805Z,73.20
2019-05-05T12:09:57.957Z,75.10
2019-05-05T12:12:30.843Z,77.10
2019-05-05T12:15:01.182Z,75.50
2019-05-05T12:17:36.302Z,79.20
2019-05-05T12:20:10.610Z,73.40
2019-05-05T12:22:40.943Z,72.60
2019-05-05T12:25:29.572Z,70.00
2019-05-05T12:28:18.819Z,71.50
2019-05-05T12:30:49.108Z,71.70
2019-05-05T12:33:19.395Z,71.30
2019-05-05T12:35:49.817Z,72.20
2019-05-05T12:38:20.231Z,73.00
2019-05-05T12:40:50.506Z,74.80
2019-05-05T12:43:20.839Z,72.10
2019-05-05T12:45:57.103Z,76.50
2019-05-05T12:48:32.106Z,73.00
2019-05-05T12:51:04.167Z,74.20
2019-05-05T12:53:34.608Z,75.10
2019-05-05T12:56:04.922Z,75.90
2019-05-05T12:58:35.262Z,82.00
2019-05-05T13:01:10.486Z,85.00
2019-05-05T13:03:40.770Z,91.40
2019-05-05T13:06:11.052Z,89.00
2019-05-05T13:08:41.444Z,86.20
2019-05-05T13:11:11.783Z,85.00
2019-05-05T13:13:43.954Z,91.50
2019-05-05T13:16:14.357Z,91.00
2019-05-05T13:18:44.653Z,91.60
2019-05-05T13:21:27.700Z,92.10
2019-05-05T13:24:16.984Z,90.80
2019-05-05T13:27:09.903Z,90.80
2019-05-05T13:29:38.475Z,90.20
2019-05-05T13:32:08.758Z,87.60
2019-05-05T13:34:39.080Z,86.30
2019-05-05T13:37:09.399Z,84.90
2019-05-05T13:39:39.727Z,85.60
2019-05-05T13:42:10.070Z,86.20
2019-05-05T13:44:57.492Z,84.20
2019-05-05T13:47:27.801Z,87.00
2019-05-05T13:50:05.247Z,86.70
2019-05-05T13:52:35.582Z,83.20
2019-05-05T13:55:06.091Z,83.20
2019-05-05T13:57:36.520Z,83.60
2019-05-05T14:00:09.992Z,84.80
2019-05-05T14:02:40.296Z,86.00
2019-05-05T14:05:10.820Z,81.30
2019-05-05T14:07:43.458Z,82.20
2019-05-05T14:10:14.406Z,87.00
2019-05-05T14:12:45.018Z,90.50
2019-05-05T14:15:18.943Z,92.30
2019-05-05T14:17:49.287Z,93.30
2019-05-05T14:20:19.648Z,92.70
2019-05-05T15:16:29.591Z,86.70
2019-05-05T15:19:00.402Z,91.40
2019-05-05T15:21:31.457Z,92.10
2019-05-05T15:24:01.770Z,93.70
2019-05-05T15:26:34.357Z,94.70
2019-05-05T15:29:04.193Z,95.00
2019-05-05T15:31:34.548Z,94.00
2019-05-05T15:34:04.881Z,95.50
2019-05-05T15:36:35.475Z,94.90
2019-05-05T15:39:08.960Z,93.20
2019-05-05T15:41:41.714Z,91.40
2019-05-05T15:44:13.299Z,92.30
2019-05-05T15:46:44.202Z,93.70
2019-05-05T15:49:14.924Z,91.90
2019-05-05T15:51:45.301Z,91.50
2019-05-05T15:54:15.716Z,91.30
2019-05-05T15:56:46.031Z,89.50
2019-05-05T15:59:16.331Z,87.60
2019-05-05T16:01:46.635Z,85.40
2019-05-05T16:04:16.923Z,88.70
2019-05-05T16:06:47.238Z,91.60
2019-05-05T16:09:18.973Z,92.90
2019-05-05T16:11:50.791Z,94.50
2019-05-05T16:14:23.716Z,91.90
2019-05-05T16:17:06.092Z,90.60
2019-05-05T16:19:59.860Z,89.60
2019-05-05T16:22:38.545Z,86.60
2019-05-05T16:25:14.035Z,89.40
2019-05-05T16:27:45.487Z,90.80
2019-05-05T16:30:16.635Z,93.20
2019-05-05T16:32:46.951Z,93.80
2019-05-05T16:35:18.913Z,95.40
2019-05-05T16:37:49.227Z,96.90
2019-05-05T16:40:19.739Z,97.50
2019-05-05T16:42:50.022Z,97.80
2019-05-05T16:45:20.528Z,98.10
2019-05-05T16:47:50.883Z,97.90
2019-05-05T16:50:21.339Z,98.20
2019-05-05T16:52:57.823Z,99.30
2019-05-05T16:55:51.115Z,96.50
2019-05-05T16:58:21.450Z,96.70
2019-05-05T17:00:51.743Z,96.50
2019-05-05T17:03:23.975Z,93.70
2019-05-05T17:05:55.608Z,94.30
2019-05-05T17:08:26.383Z,93.50
2019-05-05T17:10:56.722Z,94.70
2019-05-05T17:13:37.192Z,93.30
2019-05-05T17:16:26.507Z,93.10
2019-05-05T17:19:04.384Z,94.60
2019-05-05T17:21:57.359Z,96.10
2019-05-05T17:24:27.986Z,94.40
2019-05-05T17:26:58.394Z,92.00
2019-05-05T17:29:28.672Z,94.00
2019-05-05T17:31:59.010Z,95.20
2019-05-05T17:34:29.309Z,95.40
2019-05-05T17:36:59.660Z,95.20
2019-05-05T17:39:34.412Z,96.20
2019-05-05T17:42:35.096Z,96.30
2019-05-05T17:45:14.239Z,96.70
2019-05-05T17:47:49.128Z,98.40
2019-05-05T17:50:27.310Z,98.10
2019-05-05T17:53:14.966Z,98.80
2019-05-05T17:55:45.311Z,99.20
2019-05-05T17:58:15.621Z,99.70
2019-05-05T18:00:54.751Z,99.30
2019-05-05T18:03:25.046Z,99.90
2019-05-05T18:06:05.791Z,99.90
2019-05-05T18:08:49.344Z,99.90
2019-05-05T18:11:47.403Z,99.90
2019-05-05T18:14:23.928Z,99.90
2019-05-05T18:16:54.406Z,99.90
2019-05-05T18:19:24.859Z,99.90
2019-05-05T18:21:55.170Z,99.90
2019-05-05T18:24:25.469Z,99.90
2019-05-05T18:26:55.796Z,99.90
2019-05-05T18:29:26.391Z,99.90
2019-05-05T18:31:56.667Z,99.90
2019-05-05T18:34:26.971Z,99.90
2019-05-05T18:36:57.280Z,99.90
2019-05-05T18:39:27.661Z,99.90
2019-05-05T18:42:14.000Z,99.90
2019-05-05T18:44:46.248Z,99.90
2019-05-05T18:47:18.789Z,99.90
2019-05-05T18:49:49.228Z,99.90
2019-05-05T18:52:19.659Z,99.90
2019-05-05T18:54:50.009Z,99.90
2019-05-05T18:57:20.253Z,99.90
2019-05-05T18:59:50.598Z,99.90
2019-05-05T19:02:37.914Z,99.90
2019-05-05T19:05:34.448Z,99.90
2019-05-05T19:08:10.144Z,99.90
2019-05-05T19:10:40.441Z,99.90
2019-05-05T19:13:10.873Z,99.90
2019-05-05T19:15:41.231Z,99.90
2019-05-05T19:18:13.892Z,99.90
2019-05-05T19:21:08.467Z,99.90
2019-05-05T19:23:38.909Z,99.90
2019-05-05T19:26:09.254Z,99.90
2019-05-05T19:28:44.327Z,99.90
2019-05-05T19:31:13.982Z,99.90
2019-05-05T19:33:44.368Z,99.90
2019-05-05T19:36:14.642Z,99.90
2019-05-05T19:38:45.003Z,99.90
2019-05-05T19:41:17.723Z,99.90
2019-05-05T19:43:54.777Z,99.90
2019-05-05T19:46:35.021Z,99.90
2019-05-05T19:49:15.229Z,99.90
2019-05-05T19:51:45.834Z,99.90
2019-05-05T19:54:16.130Z,99.90
2019-05-05T19:56:46.487Z,99.90
2019-05-05T19:59:16.779Z,99.90
2019-05-05T20:01:47.118Z,99.90
2019-05-05T20:04:17.414Z,99.90
2019-05-05T20:06:47.676Z,99.90
2019-05-05T20:09:18.279Z,99.90
2019-05-05T20:11:48.646Z,99.90
2019-05-05T20:14:18.993Z,99.90
2019-05-05T20:17:08.371Z,99.90
2019-05-05T20:19:44.532Z,99.90
2019-05-05T20:22:15.058Z,99.90
2019-05-05T20:24:45.341Z,99.90
2019-05-05T20:27:15.946Z,99.90
2019-05-05T20:29:46.272Z,99.90
2019-05-05T20:32:18.619Z,99.90
2019-05-05T20:35:14.871Z,99.90
2019-05-05T20:37:49.369Z,99.90
2019-05-05T20:40:24.330Z,99.90
2019-05-05T20:42:54.396Z,99.90
2019-05-05T20:45:27.567Z,99.90
2019-05-05T20:47:57.832Z,99.90
2019-05-05T20:50:28.121Z,99.90
2019-05-05T20:52:58.426Z,99.90
2019-05-05T20:55:28.704Z,99.90
2019-05-05T20:57:59.048Z,99.90
2019-05-05T21:00:29.397Z,99.90
2019-05-05T21:02:59.675Z,99.90
2019-05-05T21:05:29.990Z,99.90
2019-05-05T21:08:00.303Z,99.90
2019-05-05T21:10:30.610Z,99.90
2019-05-05T21:13:00.875Z,99.90
2019-05-05T21:15:33.762Z,99.90
2019-05-05T21:18:04.958Z,99.90
2019-05-05T21:20:35.511Z,99.90
2019-05-05T21:23:30.646Z,99.90
2019-05-05T21:26:04.783Z,99.90
2019-05-05T21:28:35.119Z,99.90
2019-05-05T21:31:05.513Z,99.90
2019-05-05T21:33:35.809Z,99.90
2019-05-05T21:36:06.069Z,99.90
2019-05-05T21:38:36.352Z,99.90
2019-05-05T21:41:06.691Z,99.90
2019-05-05T21:43:36.976Z,99.90
2019-05-05T21:46:07.220Z,99.90
2019-05-05T21:48:37.578Z,99.90
2019-05-05T21:51:23.971Z,99.90
2019-05-05T21:54:13.970Z,99.90
2019-05-05T21:56:54.409Z,99.90
2019-05-05T21:59:24.707Z,99.90
2019-05-05T22:01:55.121Z,99.90
2019-05-05T22:04:25.472Z,99.90
2019-05-05T22:06:55.767Z,99.90
2019-05-05T22:09:26.037Z,99.90
2019-05-05T22:11:56.474Z,99.90
2019-05-05T22:14:27.137Z,99.90
2019-05-05T22:16:57.414Z,99.90
2019-05-05T22:19:29.501Z,99.90
2019-05-05T22:22:04.203Z,99.90
2019-05-05T22:24:35.785Z,99.90
2019-05-05T22:27:06.504Z,99.90
2019-05-05T22:29:36.827Z,99.90
2019-05-05T22:32:07.103Z,99.90
2019-05-05T22:34:37.395Z,99.90
2019-05-05T22:37:09.681Z,99.90
2019-05-05T22:39:39.813Z,99.90
2019-05-05T22:42:10.103Z,99.90
2019-05-05T22:44:40.407Z,99.90
2019-05-05T22:47:10.707Z,99.90
2019-05-05T22:49:40.990Z,99.90
2019-05-05T22:52:11.297Z,99.90
2019-05-05T22:54:41.570Z,99.90
2019-05-05T22:57:13.891Z,99.90
2019-05-05T22:59:43.969Z,99.90
2019-05-05T23:02:15.912Z,99.90
2019-05-05T23:05:00.898Z,99.90
2019-05-05T23:07:34.790Z,99.90
2019-05-05T23:10:04.952Z,99.90
2019-05-05T23:12:35.241Z,99.90
2019-05-05T23:15:06.614Z,99.90
2019-05-05T23:17:51.486Z,99.90
2019-05-05T23:21:08.649Z,99.90
2019-05-05T23:24:06.875Z,99.90
2019-05-05T23:26:38.968Z,99.90
2019-05-05T23:29:09.448Z,99.90
2019-05-05T23:31:39.747Z,99.90
2019-05-05T23:34:10.037Z,99.90
2019-05-05T23:36:40.287Z,99.90
2019-05-05T23:39:10.663Z,99.90
2019-05-05T23:41:40.955Z,99.90
2019-05-05T23:44:11.276Z,99.90
2019-05-05T23:46:41.579Z,99.90
2019-05-05T23:49:13.807Z,99.90
2019-05-05T23:51:44.163Z,99.90
2019-05-05T23:54:14.582Z,99.90
2019-05-05T23:56:44.937Z,99.90
2019-05-05T23:59:15.224Z,99.90
